Airfield :
LOGIN :

Register | Disclaimer

   EN    FR    IT 

 










Legend :    VFR   Marginal VFR   IFR   Intensive IFR   Very Intensive IFR
Visi :
Ceiling :
>= 8 km
>= 3000ft
5 to 8 km
1000 to 3000 ft
1500m to 5 km
500 to 1000 ft
800 to 1500m
200 to 500 ft
< 800m
< 200 ft
Symbols :   Thunderstorms  Fog  Heavy snow  Heavy precipitations  Wind > 20 kt
SIGMETs :     Misc.  Thunderstorms  Icing  Turbulence  Mountain Waves  Volcanic Ashes







- Airport Elevation : 1906 ft
- IATA code : INN


LOWI - Innsbruck

CURRENT METAR :
  • 200550Z 26003KT 230V300 9999 FEW080 18/13 Q1019 NOSIG

EXPIRED METARs :
  • 200520Z VRB02KT CAVOK 17/13 Q1019 NOSIG
  • 200450Z VRB01KT CAVOK 16/12 Q1019 NOSIG
  • 200420Z 28003KT 240V300 CAVOK 14/12 Q1019 NOSIG
  • 200350Z 00000KT CAVOK 14/11 Q1019 NOSIG
  • 200320Z AUTO 26002KT 9999 NSC 14/12 Q1018

TAF TAF LOWI
Valid from the 20 at 06:00 until the 21 at 06:00 UTC


200515Z 2006/2106 27006KT 9999 FEW080 SCT300 TX30/2013Z TN17/2006Z
BECMG 2010/2012 12012KT
TEMPO 2014/2020 16015G25KT FEW080CB
BECMG 2020/2022 27005KT CAVOK
No reported NOTAMs for that airfield.



MET'MAP, your aeronautical weather chart ! - Copyright ORBIFLY December 2007 - Disclaimer

ORBIFLY MET'MAP TEAM :

Programming & Development : Alexandra Zaïnal
Concept & Development : Baudouin d'Aumeries
Co-Development & Prog : Marc-Olivier Méhu
Technical & hardware support : Manuel Goepfert

Contact : metmap@orbifly.com




SOURCES & CREDITS :

   NOAA